Time;durP1;ratioP1;P1;durP2;ratioP2;P2;SDS_P1;SDS_P2;PMS_P1;PMS_P2;Temp;Humidity;BMP_temperature;BMP_pressure;BME280_temperature;BME280_humidity;BME280_pressure;Samples;Min_cycle;Max_cycle;Signal;HPM_P1;HPM_P2
2021/12/15 04:00:54;;;;;;;8.37;7.57;;;8.80;81.60;;;;;;5957398;23;20396;-71
2021/12/15 04:03:26;;;;;;;8.37;6.90;;;8.50;83.00;;;;;;4976416;28;20442;-71
2021/12/15 04:05:53;;;;;;;9.93;7.23;;;8.50;82.80;;;;;;4975549;28;20533;-71
2021/12/15 04:08:21;;;;;;;7.47;6.67;;;8.40;83.40;;;;;;4975438;28;20508;-71
2021/12/15 04:10:48;;;;;;;7.17;5.93;;;8.60;83.10;;;;;;4975450;28;20462;-71
2021/12/15 04:13:15;;;;;;;6.97;5.20;;;8.60;82.90;;;;;;4975439;28;20477;-71
2021/12/15 04:15:47;;;;;;;6.80;4.77;;;8.70;82.20;;;;;;4976752;28;20489;-71
2021/12/15 04:18:15;;;;;;;6.50;5.17;;;8.60;81.90;;;;;;4975364;28;20493;-71
2021/12/15 04:20:42;;;;;;;5.00;3.30;;;8.60;82.10;;;;;;4975289;28;20458;-71
2021/12/15 04:23:12;;;;;;;5.90;5.17;;;8.70;81.40;;;;;;4975069;28;20477;-71
2021/12/15 04:25:42;;;;;;;6.73;5.57;;;8.70;81.10;;;;;;4975194;28;20449;-71
2021/12/15 04:28:13;;;;;;;6.50;5.30;;;8.50;81.90;;;;;;4975357;28;20862;-71
2021/12/15 04:30:45;;;;;;;7.07;5.43;;;8.50;82.30;;;;;;4977111;28;20430;-71
2021/12/15 04:33:18;;;;;;;6.60;5.60;;;8.40;82.10;;;;;;4976066;28;20566;-70
2021/12/15 04:35:45;;;;;;;5.10;3.70;;;8.20;82.80;;;;;;4975181;28;20470;-70
2021/12/15 04:38:14;;;;;;;4.43;4.03;;;8.40;82.40;;;;;;4975114;28;20493;-70
2021/12/15 04:40:42;;;;;;;4.80;2.93;;;8.50;81.80;;;;;;4974897;28;20461;-70
2021/12/15 04:43:10;;;;;;;4.00;2.50;;;8.30;82.10;;;;;;4974655;28;20866;-70
2021/12/15 04:45:38;;;;;;;2.97;1.87;;;8.30;81.90;;;;;;4974905;28;20453;-71
2021/12/15 04:48:05;;;;;;;3.13;1.90;;;8.40;81.60;;;;;;4974915;28;20446;-71
2021/12/15 04:50:33;;;;;;;3.00;1.50;;;8.40;81.00;;;;;;4975014;28;20501;-71
2021/12/15 04:53:02;;;;;;;3.27;2.07;;;8.20;80.80;;;;;;4975522;28;20449;-71
2021/12/15 04:55:30;;;;;;;4.23;2.70;;;8.10;81.70;;;;;;4974886;28;20482;-71
2021/12/15 04:57:58;;;;;;;3.80;2.27;;;8.30;81.30;;;;;;4974942;28;20461;-71
2021/12/15 05:00:29;;;;;;;3.30;1.90;;;8.50;81.00;;;;;;4974837;28;21004;-71
2021/12/15 05:02:56;;;;;;;3.17;2.37;;;8.60;80.50;;;;;;4974966;28;20961;-71
2021/12/15 05:05:25;;;;;;;2.80;1.50;;;8.70;80.10;;;;;;4975334;28;20446;-71
2021/12/15 05:07:54;;;;;;;3.20;1.77;;;8.80;79.80;;;;;;4974769;28;20450;-71
2021/12/15 05:10:22;;;;;;;3.30;1.80;;;8.90;79.70;;;;;;4974888;28;20450;-70
2021/12/15 05:12:49;;;;;;;3.10;2.03;;;9.00;79.40;;;;;;4974862;28;20452;-71
2021/12/15 05:15:16;;;;;;;6.50;3.60;;;9.00;79.00;;;;;;4974723;28;20458;-71
2021/12/15 05:17:43;;;;;;;6.83;4.60;;;8.90;79.00;;;;;;4974738;28;20501;-71
2021/12/15 05:20:11;;;;;;;6.17;5.00;;;8.60;80.60;;;;;;4974619;28;20489;-71
2021/12/15 05:22:38;;;;;;;6.60;5.27;;;8.60;81.00;;;;;;4974956;28;20468;-71
2021/12/15 05:25:09;;;;;;;7.63;6.47;;;8.60;81.00;;;;;;4974701;28;20442;-71
2021/12/15 05:27:36;;;;;;;6.73;5.63;;;8.50;81.70;;;;;;4974877;28;20462;-71
2021/12/15 05:30:05;;;;;;;5.77;5.03;;;8.50;81.50;;;;;;4974991;28;20450;-71
2021/12/15 05:32:31;;;;;;;4.93;3.07;;;8.40;81.60;;;;;;4974192;28;20890;-71
2021/12/15 05:34:59;;;;;;;4.63;2.97;;;8.20;81.70;;;;;;4974633;28;20450;-71
2021/12/15 05:37:28;;;;;;;3.67;2.60;;;7.80;83.00;;;;;;4974329;28;20825;-71
2021/12/15 05:39:55;;;;;;;3.53;2.40;;;8.00;82.90;;;;;;4974095;28;20933;-71
2021/12/15 05:42:26;;;;;;;3.23;2.00;;;8.10;82.10;;;;;;4974312;28;20473;-71
2021/12/15 05:44:54;;;;;;;4.00;2.93;;;8.20;82.10;;;;;;4974400;28;20439;-71
2021/12/15 05:47:21;;;;;;;5.10;3.67;;;8.40;81.50;;;;;;4974296;28;20500;-71
2021/12/15 05:49:49;;;;;;;4.53;3.20;;;8.30;81.40;;;;;;4973926;28;20836;-71
2021/12/15 05:52:16;;;;;;;5.13;3.90;;;8.20;81.70;;;;;;4974175;28;20532;-71
2021/12/15 05:54:43;;;;;;;5.07;3.20;;;8.30;81.90;;;;;;4973890;28;20953;-71
2021/12/15 05:57:10;;;;;;;3.80;2.63;;;8.30;81.60;;;;;;4974109;28;20490;-71
2021/12/15 05:59:38;;;;;;;3.97;2.33;;;8.30;81.40;;;;;;4974149;28;20438;-71
2021/12/15 06:02:05;;;;;;;3.40;2.13;;;8.30;81.60;;;;;;4973976;28;20478;-71
2021/12/15 06:04:32;;;;;;;3.27;1.87;;;8.10;81.30;;;;;;4974258;28;20446;-71
2021/12/15 06:06:59;;;;;;;2.60;1.30;;;8.00;81.90;;;;;;4974273;28;20450;-71
2021/12/15 06:09:27;;;;;;;3.13;1.80;;;8.10;81.70;;;;;;4974110;28;20453;-71
2021/12/15 06:11:54;;;;;;;2.93;1.80;;;8.20;81.30;;;;;;4973866;28;20461;-71
2021/12/15 06:14:24;;;;;;;2.60;1.40;;;8.40;80.80;;;;;;4974422;28;20520;-71
2021/12/15 06:16:53;;;;;;;3.50;2.00;;;8.50;80.60;;;;;;4974042;28;20498;-71
2021/12/15 06:19:20;;;;;;;3.33;2.20;;;8.60;79.90;;;;;;4976170;28;20505;-71
2021/12/15 06:21:47;;;;;;;3.77;2.60;;;8.70;79.80;;;;;;4977483;28;20469;-71
2021/12/15 06:24:14;;;;;;;4.00;2.80;;;8.70;79.70;;;;;;4977620;28;20461;-71
2021/12/15 06:26:41;;;;;;;4.50;3.20;;;8.50;80.20;;;;;;4977362;28;20443;-71
2021/12/15 06:29:08;;;;;;;4.70;3.30;;;8.60;80.10;;;;;;4977422;28;20463;-71
2021/12/15 06:31:34;;;;;;;4.57;3.40;;;8.60;79.90;;;;;;4977164;28;20466;-71
2021/12/15 06:34:03;;;;;;;3.80;2.60;;;8.40;80.60;;;;;;4976904;28;21004;-71
2021/12/15 06:36:30;;;;;;;4.90;4.00;;;8.30;80.90;;;;;;4977107;28;20481;-71
2021/12/15 06:38:57;;;;;;;5.50;3.83;;;8.30;81.40;;;;;;4977118;28;20483;-71
2021/12/15 06:41:24;;;;;;;4.47;2.97;;;8.40;81.30;;;;;;4977051;28;20562;-71
2021/12/15 06:43:56;;;;;;;4.50;3.47;;;8.50;80.80;;;;;;4976788;28;20945;-71
2021/12/15 06:46:48;;;;;;;4.37;3.00;;;8.50;80.80;;;;;;4977022;28;20431;-71
2021/12/15 07:00:14;;;;;;;4.20;2.93;;;8.50;80.00;;;;;;4969625;28;20871;-71
2021/12/15 07:02:42;;;;;;;6.30;3.80;;;8.30;80.50;;;;;;4976430;28;20478;-71
2021/12/15 07:05:11;;;;;;;5.00;4.50;;;8.20;81.30;;;;;;4976737;28;20450;-71
2021/12/15 07:07:40;;;;;;;6.10;4.90;;;8.30;81.00;;;;;;4976705;28;20450;-71
2021/12/15 07:10:09;;;;;;;6.90;5.27;;;8.40;81.00;;;;;;4976530;28;20498;-71
2021/12/15 07:12:36;;;;;;;7.87;7.00;;;8.50;81.10;;;;;;4976415;28;20509;-71
2021/12/15 07:15:04;;;;;;;7.30;5.70;;;8.40;81.20;;;;;;4976455;28;20450;-71
2021/12/15 07:17:30;;;;;;;6.00;5.40;;;8.50;81.40;;;;;;4976241;28;20489;-71
2021/12/15 07:20:07;;;;;;;6.60;5.37;;;8.50;81.30;;;;;;4976019;28;20937;-71
2021/12/15 07:22:43;;;;;;;7.43;5.90;;;8.40;81.40;;;;;;4976236;28;20478;-71
2021/12/15 07:25:11;;;;;;;8.87;6.90;;;8.50;81.40;;;;;;4976235;28;20488;-71
2021/12/15 07:27:38;;;;;;;6.03;5.37;;;8.30;81.60;;;;;;4976262;28;20516;-71
2021/12/15 07:30:06;;;;;;;5.20;4.20;;;8.10;82.00;;;;;;4975764;28;20793;-71
2021/12/15 07:32:33;;;;;;;5.23;4.07;;;8.10;81.90;;;;;;4976047;28;20478;-71
2021/12/15 07:35:00;;;;;;;6.03;5.13;;;7.90;81.80;;;;;;4976088;28;20450;-71
2021/12/15 07:37:27;;;;;;;6.37;5.27;;;7.90;82.70;;;;;;4975717;28;20911;-71
2021/12/15 07:39:58;;;;;;;6.53;5.10;;;7.80;82.60;;;;;;4975740;28;20949;-71
2021/12/15 07:42:32;;;;;;;5.70;4.93;;;7.70;83.40;;;;;;4976205;28;20461;-71
2021/12/15 07:44:59;;;;;;;7.77;6.70;;;7.60;83.50;;;;;;4976002;28;20528;-71
2021/12/15 07:47:26;;;;;;;7.23;6.17;;;7.50;83.80;;;;;;4975712;28;20453;-71
2021/12/15 07:49:53;;;;;;;7.87;6.20;;;7.50;84.70;;;;;;4975821;28;20807;-71
2021/12/15 07:52:21;;;;;;;7.13;5.47;;;7.60;84.50;;;;;;4975779;28;20471;-70
2021/12/15 07:54:47;;;;;;;8.80;6.27;;;7.70;83.90;;;;;;4975939;28;20516;-71
2021/12/15 07:57:20;;;;;;;7.10;5.60;;;7.60;83.80;;;;;;4975733;28;20481;-71
2021/12/15 07:59:47;;;;;;;7.30;6.60;;;7.70;84.20;;;;;;4975787;28;20434;-71
2021/12/15 08:02:14;;;;;;;6.50;5.33;;;7.80;83.60;;;;;;4975383;28;20486;-71
2021/12/15 08:04:41;;;;;;;6.73;5.30;;;7.50;83.50;;;;;;4975841;28;20456;-71
2021/12/15 08:07:07;;;;;;;6.00;5.30;;;7.20;84.60;;;;;;4975496;28;20446;-71
2021/12/15 08:09:34;;;;;;;7.30;5.57;;;7.20;84.70;;;;;;4975778;28;20504;-71
2021/12/15 08:12:01;;;;;;;6.30;5.63;;;7.30;85.00;;;;;;4975569;28;20485;-71
2021/12/15 08:14:29;;;;;;;5.70;4.80;;;7.40;84.70;;;;;;4975808;28;21074;-71
2021/12/15 08:16:56;;;;;;;6.30;4.77;;;7.30;84.10;;;;;;4975922;28;20486;-71
2021/12/15 08:19:23;;;;;;;5.43;4.93;;;7.20;84.80;;;;;;4975664;28;20450;-71
2021/12/15 08:21:49;;;;;;;5.90;4.33;;;7.30;84.90;;;;;;4975312;28;20484;-71
2021/12/15 08:24:16;;;;;;;5.10;3.53;;;7.30;83.80;;;;;;4975253;28;20449;-71
2021/12/15 08:26:43;;;;;;;5.23;3.80;;;7.10;84.40;;;;;;4975754;28;20450;-71
2021/12/15 08:29:10;;;;;;;4.83;3.40;;;6.90;84.50;;;;;;4975399;28;20461;-71
2021/12/15 08:31:38;;;;;;;5.30;3.50;;;6.60;85.60;;;;;;4975217;28;20476;-71
2021/12/15 08:34:08;;;;;;;4.60;3.30;;;6.70;86.00;;;;;;4975304;28;20461;-71
2021/12/15 08:36:35;;;;;;;4.23;3.10;;;6.90;85.70;;;;;;4975590;28;20486;-71
2021/12/15 08:39:04;;;;;;;4.73;3.47;;;7.00;85.00;;;;;;4976113;28;20469;-71
2021/12/15 08:41:31;;;;;;;4.83;3.17;;;7.00;84.40;;;;;;4974728;28;20470;-71
2021/12/15 08:43:58;;;;;;;5.30;4.10;;;7.10;84.60;;;;;;4975386;28;20442;-71
2021/12/15 08:46:28;;;;;;;4.87;3.67;;;7.10;83.90;;;;;;4975432;28;20442;-71
2021/12/15 08:48:56;;;;;;;4.87;3.33;;;7.00;84.40;;;;;;4975991;28;20454;-71
2021/12/15 08:51:26;;;;;;;4.07;3.33;;;7.10;84.40;;;;;;4976085;28;20474;-71
2021/12/15 08:53:55;;;;;;;5.00;3.23;;;7.20;83.80;;;;;;4975738;28;20800;-71
2021/12/15 08:56:21;;;;;;;3.93;3.50;;;7.00;83.80;;;;;;4975403;28;20958;-70
2021/12/15 08:58:48;;;;;;;4.40;2.80;;;6.80;84.70;;;;;;4976220;28;20450;-71
2021/12/15 09:01:16;;;;;;;3.57;2.50;;;6.90;85.00;;;;;;4975881;28;20486;-71
2021/12/15 09:03:43;;;;;;;4.50;3.20;;;6.60;85.10;;;;;;4976331;28;20963;-71
2021/12/15 09:06:13;;;;;;;4.60;3.17;;;6.60;86.00;;;;;;4975294;28;20470;-70
2021/12/15 09:08:41;;;;;;;4.30;2.80;;;6.50;86.30;;;;;;4975959;28;20458;-70
2021/12/15 09:11:12;;;;;;;4.20;2.83;;;6.60;85.70;;;;;;4975348;28;20985;-71
2021/12/15 09:13:39;;;;;;;4.60;3.07;;;6.50;86.10;;;;;;4975494;28;20438;-70
2021/12/15 09:16:09;;;;;;;4.30;3.30;;;6.60;86.00;;;;;;4975405;28;20479;-70
2021/12/15 09:18:38;;;;;;;3.93;2.97;;;6.60;85.80;;;;;;4974664;28;21067;-71
2021/12/15 09:21:07;;;;;;;3.50;2.23;;;6.80;85.30;;;;;;4974287;28;20844;-70
2021/12/15 09:23:36;;;;;;;3.93;2.40;;;6.60;85.00;;;;;;4974792;28;20442;-70
2021/12/15 09:26:05;;;;;;;4.13;2.97;;;6.80;85.20;;;;;;4974588;28;20454;-70
2021/12/15 09:28:32;;;;;;;4.30;3.27;;;6.90;84.20;;;;;;4974341;28;20450;-70
2021/12/15 09:31:00;;;;;;;4.57;3.10;;;6.80;84.50;;;;;;4974508;28;20501;-70
2021/12/15 09:33:29;;;;;;;4.60;2.70;;;6.80;84.90;;;;;;4974575;28;20477;-70
2021/12/15 09:35:57;;;;;;;4.77;3.27;;;6.80;84.70;;;;;;4974583;28;20457;-70
2021/12/15 09:38:24;;;;;;;3.90;2.53;;;6.90;84.40;;;;;;4974261;28;20482;-70
2021/12/15 09:40:56;;;;;;;3.90;2.30;;;6.80;84.70;;;;;;4974138;28;20859;-70
2021/12/15 09:43:27;;;;;;;3.77;2.60;;;6.80;84.40;;;;;;4975235;28;20469;-70
2021/12/15 09:46:00;;;;;;;3.80;2.37;;;6.80;84.10;;;;;;4975254;28;20453;-70
2021/12/15 10:02:34;;;;;;;3.47;2.10;;;7.10;83.50;;;;;;4977931;28;20457;-70
2021/12/15 10:05:12;;;;;;;3.67;1.97;;;6.70;83.10;;;;;;4977953;28;20438;-70
2021/12/15 10:19:19;;;;;;;4.87;3.10;;;7.00;82.90;;;;;;4977842;28;20795;-69
2021/12/15 10:22:01;;;;;;;4.10;3.20;;;6.80;83.30;;;;;;4977672;28;20477;-70
2021/12/15 10:24:30;;;;;;;5.07;2.70;;;7.00;84.00;;;;;;4977828;28;20534;-69
2021/12/15 10:26:59;;;;;;;4.10;2.87;;;7.10;83.20;;;;;;4977360;28;20492;-69
2021/12/15 10:29:27;;;;;;;4.17;3.00;;;7.00;82.70;;;;;;4977440;28;20453;-69
2021/12/15 10:32:00;;;;;;;4.13;3.10;;;7.20;83.10;;;;;;4977034;28;20880;-69
2021/12/15 10:34:27;;;;;;;4.73;2.97;;;7.40;82.20;;;;;;4977117;28;20941;-69
2021/12/15 10:36:54;;;;;;;3.77;2.77;;;7.20;81.70;;;;;;4976957;28;20457;-69
2021/12/15 10:39:22;;;;;;;4.17;2.90;;;7.10;81.90;;;;;;4977240;28;20485;-69
2021/12/15 10:41:53;;;;;;;4.20;3.50;;;7.00;82.60;;;;;;4976832;28;20470;-70
2021/12/15 10:44:23;;;;;;;4.37;3.00;;;7.10;82.20;;;;;;4977163;28;20430;-69
2021/12/15 10:46:54;;;;;;;3.40;2.50;;;7.20;82.60;;;;;;4977115;28;20473;-69
2021/12/15 10:49:24;;;;;;;4.30;3.10;;;7.40;82.20;;;;;;4977482;28;20442;-69
2021/12/15 10:51:54;;;;;;;4.00;3.07;;;7.50;81.10;;;;;;4977818;28;20978;-69
2021/12/15 10:54:23;;;;;;;4.57;3.17;;;7.40;81.40;;;;;;4977746;28;20504;-69
2021/12/15 10:56:53;;;;;;;3.97;2.77;;;7.30;81.20;;;;;;4977151;28;20457;-69
2021/12/15 10:59:22;;;;;;;5.40;2.97;;;6.90;82.30;;;;;;4977557;28;20452;-69
2021/12/15 11:02:02;;;;;;;4.90;3.07;;;7.10;82.40;;;;;;4976959;28;20501;-70
2021/12/15 11:04:36;;;;;;;4.30;3.13;;;6.80;83.00;;;;;;4976235;28;20529;-69
2021/12/15 11:07:15;;;;;;;6.40;3.73;;;6.90;83.00;;;;;;4976718;28;20438;-69
2021/12/15 11:09:45;;;;;;;4.47;3.07;;;7.00;82.80;;;;;;4976707;28;20439;-69
2021/12/15 11:12:16;;;;;;;4.40;3.00;;;7.10;82.80;;;;;;4976666;28;20474;-69
2021/12/15 11:14:45;;;;;;;4.43;4.00;;;7.10;81.90;;;;;;4976586;28;20430;-68
2021/12/15 11:17:16;;;;;;;6.37;4.33;;;7.10;83.00;;;;;;4976635;28;20446;-69
2021/12/15 11:19:50;;;;;;;7.00;4.00;;;7.10;82.90;;;;;;4976685;28;20435;-69
2021/12/15 11:22:55;;;;;;;4.03;2.77;;;7.40;82.00;;;;;;4976505;28;20524;-69
2021/12/15 11:25:29;;;;;;;4.63;3.43;;;7.10;82.60;;;;;;4976285;28;20438;-70
2021/12/15 11:28:00;;;;;;;4.70;3.90;;;7.10;82.90;;;;;;4976217;28;20427;-69
2021/12/15 11:30:30;;;;;;;4.47;3.30;;;7.40;81.90;;;;;;4976284;28;20485;-69
2021/12/15 11:33:01;;;;;;;4.60;3.90;;;7.60;81.50;;;;;;4976204;28;20445;-70
2021/12/15 11:35:31;;;;;;;4.63;3.67;;;7.60;80.90;;;;;;4975967;28;20849;-69
2021/12/15 11:38:02;;;;;;;4.50;3.00;;;7.70;80.40;;;;;;4976001;28;20540;-69
2021/12/15 11:40:33;;;;;;;5.30;3.30;;;7.30;81.00;;;;;;4975964;28;20488;-70
2021/12/15 11:43:01;;;;;;;4.63;3.90;;;7.10;82.40;;;;;;4975949;28;20855;-69
2021/12/15 11:45:29;;;;;;;6.40;4.90;;;7.10;82.10;;;;;;4976014;28;20446;-69
2021/12/15 11:48:20;;;;;;;5.90;4.17;;;7.00;82.80;;;;;;4975789;28;20449;-70
2021/12/15 11:50:49;;;;;;;5.30;4.07;;;7.20;82.10;;;;;;4975988;28;20474;-70
2021/12/15 11:53:31;;;;;;;5.00;4.23;;;7.00;82.40;;;;;;4975734;28;20461;-69
2021/12/15 11:56:12;;;;;;;5.53;3.47;;;7.10;82.60;;;;;;4975731;28;20480;-69
2021/12/15 11:58:39;;;;;;;5.00;3.83;;;7.50;81.80;;;;;;4975906;28;20462;-69
2021/12/15 12:01:08;;;;;;;4.20;3.20;;;7.70;81.10;;;;;;4976028;28;20887;-70
2021/12/15 12:03:36;;;;;;;5.80;3.30;;;7.50;80.90;;;;;;4976747;28;20545;-70
2021/12/15 12:06:03;;;;;;;4.73;3.90;;;7.40;81.40;;;;;;4977267;28;20480;-70
2021/12/15 12:08:30;;;;;;;5.87;4.10;;;7.40;81.40;;;;;;4977382;28;20459;-69
2021/12/15 12:11:04;;;;;;;5.00;3.80;;;7.40;81.20;;;;;;4976638;28;20473;-70
2021/12/15 12:13:38;;;;;;;5.47;3.87;;;7.20;81.60;;;;;;4976403;28;20489;-69
2021/12/15 12:16:08;;;;;;;4.30;3.13;;;7.00;82.40;;;;;;4976173;28;20497;-70
2021/12/15 12:18:36;;;;;;;4.87;3.87;;;7.10;82.20;;;;;;4976108;28;20867;-70
2021/12/15 12:21:06;;;;;;;6.00;3.87;;;7.00;82.60;;;;;;4975749;28;20485;-70
2021/12/15 12:23:35;;;;;;;5.27;3.67;;;6.90;83.60;;;;;;4976092;28;20460;-69
2021/12/15 12:26:05;;;;;;;5.80;4.70;;;7.10;83.10;;;;;;4975554;28;20450;-70
2021/12/15 12:28:37;;;;;;;4.83;4.10;;;7.00;82.70;;;;;;4975465;28;20438;-70
2021/12/15 12:31:06;;;;;;;4.90;3.57;;;7.00;82.80;;;;;;4975209;28;20957;-70
2021/12/15 12:33:34;;;;;;;5.50;4.30;;;7.00;82.80;;;;;;4976154;28;20874;-69
2021/12/15 12:36:04;;;;;;;5.97;3.70;;;7.10;83.10;;;;;;4975411;28;20984;-69
2021/12/15 12:38:34;;;;;;;4.40;3.00;;;7.00;83.20;;;;;;4975490;28;20477;-69
2021/12/15 12:41:05;;;;;;;4.60;3.60;;;6.80;83.70;;;;;;4975217;28;20478;-70
2021/12/15 12:43:34;;;;;;;4.53;3.60;;;7.00;83.50;;;;;;4974952;28;20442;-69
2021/12/15 12:46:09;;;;;;;5.87;4.53;;;7.10;83.20;;;;;;4974810;28;20446;-69
2021/12/15 12:48:52;;;;;;;4.70;3.40;;;7.10;82.60;;;;;;4974807;28;20441;-69
2021/12/15 12:59:59;;;;;;;4.20;3.60;;;7.40;82.50;;;;;;4974644;28;20434;-70
2021/12/15 13:02:43;;;;;;;5.10;3.70;;;7.60;81.40;;;;;;4974281;28;20544;-70
2021/12/15 13:05:29;;;;;;;4.50;3.50;;;7.80;81.10;;;;;;4974330;28;20925;-69
2021/12/15 13:07:59;;;;;;;5.00;4.27;;;7.80;80.60;;;;;;4974713;28;20485;-69
2021/12/15 13:10:59;;;;;;;6.50;5.33;;;7.80;80.00;;;;;;4974406;28;20501;-70
2021/12/15 13:13:29;;;;;;;5.60;4.00;;;7.70;81.10;;;;;;4974581;28;20529;-69
2021/12/15 13:15:59;;;;;;;7.37;3.90;;;7.70;80.60;;;;;;4974410;28;20442;-70
2021/12/15 13:18:27;;;;;;;4.70;3.80;;;7.40;80.90;;;;;;4974363;28;20477;-69
2021/12/15 13:20:57;;;;;;;4.63;3.60;;;7.30;81.90;;;;;;4974321;28;20474;-70
2021/12/15 13:23:47;;;;;;;5.47;3.87;;;7.00;82.60;;;;;;4974533;28;20439;-69
2021/12/15 13:29:23;;;;;;;4.73;3.53;;;7.30;82.70;;;;;;4978209;28;20557;-70
2021/12/15 13:31:56;;;;;;;6.50;4.73;;;7.20;82.20;;;;;;4977868;28;21040;-70
2021/12/15 13:34:44;;;;;;;5.50;3.93;;;7.30;82.30;;;;;;4978848;28;20457;-69
2021/12/15 13:37:11;;;;;;;4.70;3.57;;;7.40;81.60;;;;;;4978335;28;20496;-69
2021/12/15 13:39:46;;;;;;;5.03;4.13;;;7.30;81.70;;;;;;4978049;28;20477;-69
2021/12/15 13:42:34;;;;;;;5.07;3.50;;;7.10;82.60;;;;;;4978580;28;20523;-69
2021/12/15 13:45:01;;;;;;;5.43;4.93;;;7.10;82.10;;;;;;4977939;28;20457;-69
2021/12/15 13:47:27;;;;;;;5.20;3.80;;;7.20;82.60;;;;;;4978036;28;20449;-69
2021/12/15 13:49:58;;;;;;;4.57;3.60;;;7.20;82.10;;;;;;4977992;28;20922;-69
2021/12/15 13:52:32;;;;;;;5.00;4.10;;;7.20;82.80;;;;;;4978421;28;20478;-70
2021/12/15 13:55:15;;;;;;;5.07;3.90;;;7.00;82.80;;;;;;4978026;28;20426;-69
2021/12/15 13:58:11;;;;;;;5.43;4.83;;;7.00;83.10;;;;;;4978051;28;20434;-69
2021/12/15 14:00:43;;;;;;;4.80;3.70;;;7.20;83.10;;;;;;4978017;28;20430;-70
2021/12/15 14:03:17;;;;;;;4.33;3.30;;;7.40;82.90;;;;;;4979028;28;20497;-70
2021/12/15 14:05:48;;;;;;;4.33;3.63;;;7.60;82.20;;;;;;4979309;28;20434;-70
2021/12/15 14:08:18;;;;;;;5.03;4.23;;;7.80;81.30;;;;;;4978628;28;20434;-70
2021/12/15 14:10:55;;;;;;;5.13;3.77;;;7.80;80.30;;;;;;4978357;28;20516;-70
2021/12/15 14:13:36;;;;;;;4.73;3.60;;;7.40;81.80;;;;;;4977506;28;20902;-69
2021/12/15 14:16:03;;;;;;;3.87;3.17;;;7.60;81.30;;;;;;4977679;28;20453;-70
2021/12/15 14:18:32;;;;;;;4.87;3.87;;;7.80;80.90;;;;;;4977564;28;20898;-70
2021/12/15 14:21:05;;;;;;;4.23;3.27;;;7.80;80.80;;;;;;4977480;28;20478;-70
2021/12/15 14:23:34;;;;;;;4.37;3.70;;;7.80;80.60;;;;;;4977665;28;20434;-69
2021/12/15 14:26:07;;;;;;;4.33;3.93;;;7.80;80.70;;;;;;4977591;28;20446;-70
2021/12/15 14:28:36;;;;;;;4.70;3.87;;;7.80;80.60;;;;;;4977477;28;20438;-69
2021/12/15 14:31:07;;;;;;;4.40;4.00;;;7.70;80.90;;;;;;4977270;28;20540;-70
2021/12/15 14:33:36;;;;;;;4.30;3.47;;;7.40;81.10;;;;;;4977290;28;20442;-69
2021/12/15 14:36:08;;;;;;;4.30;3.17;;;7.50;81.60;;;;;;4977243;28;20501;-70
2021/12/15 14:38:38;;;;;;;4.27;3.40;;;7.40;81.30;;;;;;4976665;28;20524;-69
2021/12/15 14:41:08;;;;;;;6.10;3.87;;;7.40;82.00;;;;;;4976830;28;20524;-70
2021/12/15 14:43:35;;;;;;;4.30;3.30;;;7.50;82.00;;;;;;4977147;28;20922;-69
2021/12/15 14:46:03;;;;;;;3.57;2.90;;;7.50;81.30;;;;;;4976995;28;20516;-70
2021/12/15 14:48:30;;;;;;;4.13;3.30;;;7.50;81.70;;;;;;4976986;28;20452;-70
2021/12/15 14:50:57;;;;;;;4.23;3.30;;;7.40;81.50;;;;;;4976862;28;20524;-70
2021/12/15 14:53:24;;;;;;;4.07;3.07;;;7.40;82.30;;;;;;4976647;28;20454;-70
2021/12/15 14:55:51;;;;;;;4.73;4.23;;;7.70;81.60;;;;;;4976997;28;20446;-70
2021/12/15 14:58:26;;;;;;;4.60;3.47;;;7.80;81.20;;;;;;4976741;28;20454;-70
2021/12/15 15:00:53;;;;;;;4.43;3.50;;;8.00;80.70;;;;;;4976961;28;20489;-70
2021/12/15 15:03:20;;;;;;;4.90;3.43;;;8.10;80.10;;;;;;4976824;28;20442;-69
2021/12/15 15:05:50;;;;;;;3.70;3.10;;;8.20;79.80;;;;;;4976838;28;20484;-70
2021/12/15 15:08:23;;;;;;;6.13;3.37;;;8.20;79.60;;;;;;4976829;28;20456;-70
2021/12/15 15:10:51;;;;;;;3.83;2.63;;;8.20;79.50;;;;;;4976589;28;20558;-70
2021/12/15 15:13:19;;;;;;;4.00;2.50;;;8.00;80.00;;;;;;4976454;28;20454;-70
2021/12/15 15:15:50;;;;;;;4.27;3.40;;;8.10;79.80;;;;;;4976464;28;20501;-69
2021/12/15 15:18:23;;;;;;;5.40;4.20;;;8.10;79.70;;;;;;4976252;28;20442;-69
2021/12/15 15:20:52;;;;;;;4.70;2.77;;;8.20;79.70;;;;;;4976635;28;20470;-70
2021/12/15 15:23:21;;;;;;;4.03;3.07;;;8.30;79.50;;;;;;4976012;28;21012;-70
2021/12/15 15:25:50;;;;;;;4.00;3.10;;;8.30;79.30;;;;;;4976276;28;20500;-70
2021/12/15 15:28:19;;;;;;;4.20;2.57;;;8.30;79.00;;;;;;4976247;28;20517;-70
2021/12/15 15:30:49;;;;;;;3.87;2.97;;;8.40;78.90;;;;;;4976192;28;20465;-70
2021/12/15 15:33:19;;;;;;;4.53;3.50;;;8.40;78.70;;;;;;4976264;28;20442;-70
2021/12/15 15:35:49;;;;;;;4.20;3.40;;;8.50;78.70;;;;;;4976420;28;20446;-70
2021/12/15 15:38:18;;;;;;;3.87;2.93;;;8.50;78.40;;;;;;4976154;28;20457;-70
2021/12/15 15:40:47;;;;;;;3.93;3.10;;;8.60;78.20;;;;;;4976051;28;20528;-70
2021/12/15 15:43:18;;;;;;;6.53;4.23;;;8.60;78.30;;;;;;4976065;28;20472;-70
2021/12/15 15:45:49;;;;;;;4.07;3.17;;;8.60;78.10;;;;;;4975673;28;20497;-70
2021/12/15 15:48:19;;;;;;;4.47;3.23;;;8.70;78.10;;;;;;4975480;28;20435;-70
2021/12/15 15:50:51;;;;;;;3.87;2.80;;;8.70;77.90;;;;;;4975331;28;20516;-70
2021/12/15 15:53:17;;;;;;;4.10;3.07;;;8.60;77.70;;;;;;4975776;28;20489;-70
2021/12/15 15:55:46;;;;;;;3.93;3.20;;;8.50;77.90;;;;;;4975812;28;20467;-69
2021/12/15 15:58:16;;;;;;;5.23;4.00;;;8.30;78.40;;;;;;4975667;28;20450;-69
2021/12/15 16:00:45;;;;;;;3.83;2.90;;;8.10;79.40;;;;;;4975401;28;20486;-69
2021/12/15 16:03:19;;;;;;;3.90;3.20;;;8.10;79.80;;;;;;4975619;28;20434;-70
2021/12/15 16:05:46;;;;;;;4.13;3.13;;;8.20;79.50;;;;;;4976760;28;20435;-70
2021/12/15 16:08:14;;;;;;;3.93;2.97;;;8.30;79.20;;;;;;4977802;28;20450;-70
2021/12/15 16:10:44;;;;;;;4.37;3.17;;;8.30;79.00;;;;;;4976024;28;20937;-70
2021/12/15 16:13:15;;;;;;;4.60;3.53;;;8.40;78.90;;;;;;4976686;28;20458;-70
2021/12/15 16:15:45;;;;;;;4.50;3.40;;;8.40;78.70;;;;;;4977044;28;20838;-70
2021/12/15 16:18:23;;;;;;;4.23;3.10;;;8.30;78.50;;;;;;4974997;28;21009;-69
2021/12/15 16:23:36;;;;;;;5.40;3.20;;;8.30;78.60;;;;;;4975826;28;20497;-69
2021/12/15 16:26:06;;;;;;;4.20;3.30;;;8.30;78.60;;;;;;4974889;28;20454;-70
2021/12/15 16:28:35;;;;;;;3.90;3.10;;;8.30;78.60;;;;;;4975342;28;20485;-69
2021/12/15 16:31:04;;;;;;;3.50;2.67;;;8.30;78.70;;;;;;4974636;28;20913;-69
2021/12/15 16:33:37;;;;;;;3.67;2.80;;;8.20;78.90;;;;;;4974711;28;20942;-69
2021/12/15 16:36:06;;;;;;;5.30;4.23;;;8.30;79.00;;;;;;4975059;28;20473;-70
2021/12/15 16:38:41;;;;;;;4.50;3.63;;;8.30;79.00;;;;;;4975220;28;20464;-70
2021/12/15 16:41:14;;;;;;;4.50;4.00;;;8.10;79.00;;;;;;4975113;28;20474;-70
2021/12/15 16:43:53;;;;;;;6.87;3.93;;;8.10;79.50;;;;;;4975639;28;20499;-69
2021/12/15 16:46:28;;;;;;;5.17;4.40;;;8.10;79.40;;;;;;4974908;28;20438;-70
2021/12/15 16:48:59;;;;;;;4.57;3.87;;;7.90;79.40;;;;;;4974975;28;20502;-70
2021/12/15 16:51:27;;;;;;;4.70;4.20;;;7.60;80.90;;;;;;4974727;28;20474;-69
2021/12/15 16:54:01;;;;;;;5.10;3.93;;;7.80;80.80;;;;;;4975030;28;20550;-70
2021/12/15 16:56:40;;;;;;;4.20;3.70;;;7.90;80.00;;;;;;4974822;28;20845;-70
2021/12/15 16:59:13;;;;;;;4.27;3.67;;;8.10;79.70;;;;;;4974692;28;20473;-70
2021/12/15 17:01:42;;;;;;;4.20;3.50;;;8.20;79.40;;;;;;4973854;28;21052;-70
2021/12/15 17:04:11;;;;;;;4.40;3.70;;;8.30;79.40;;;;;;4974600;28;20450;-69
2021/12/15 17:06:38;;;;;;;4.43;3.97;;;8.20;79.40;;;;;;4974490;28;20457;-70
2021/12/15 17:09:08;;;;;;;5.00;4.50;;;8.10;79.30;;;;;;4974625;28;20453;-70
2021/12/15 17:11:37;;;;;;;5.63;5.13;;;8.10;79.70;;;;;;4974542;28;20989;-70
2021/12/15 17:14:06;;;;;;;5.07;4.00;;;8.20;79.50;;;;;;4974602;28;20442;-70
2021/12/15 17:16:42;;;;;;;5.40;4.90;;;8.20;79.40;;;;;;4974558;28;20457;-70
2021/12/15 17:19:17;;;;;;;5.23;4.20;;;8.30;79.40;;;;;;4974720;28;20474;-70
2021/12/15 17:21:44;;;;;;;4.50;3.80;;;8.40;79.10;;;;;;4974601;28;20886;-70
2021/12/15 17:24:11;;;;;;;4.80;4.30;;;8.40;79.00;;;;;;4974616;28;20454;-70
2021/12/15 17:26:41;;;;;;;5.20;4.23;;;8.40;79.00;;;;;;4974736;28;20505;-70
2021/12/15 17:29:14;;;;;;;5.20;4.70;;;8.40;78.80;;;;;;4974597;28;20526;-70
2021/12/15 17:31:43;;;;;;;5.13;4.20;;;8.40;78.80;;;;;;4974464;28;20536;-69
2021/12/15 17:34:13;;;;;;;4.23;3.83;;;8.50;78.90;;;;;;4974484;28;20490;-69
2021/12/15 17:36:44;;;;;;;4.87;3.93;;;8.50;78.80;;;;;;4974375;28;20505;-69
2021/12/15 17:39:18;;;;;;;4.10;3.50;;;8.50;78.70;;;;;;4974937;28;20450;-69
2021/12/15 17:41:47;;;;;;;4.63;3.97;;;8.50;78.60;;;;;;4974577;28;20469;-70
2021/12/15 17:44:18;;;;;;;5.47;4.93;;;8.60;78.40;;;;;;4974171;28;21024;-70
2021/12/15 17:46:55;;;;;;;4.80;4.17;;;8.50;78.40;;;;;;4974619;28;20481;-70
2021/12/15 17:49:24;;;;;;;4.70;4.30;;;8.50;78.40;;;;;;4974586;28;20865;-69
2021/12/15 17:52:04;;;;;;;4.70;4.17;;;8.50;78.50;;;;;;4974609;28;20481;-70
2021/12/15 17:54:34;;;;;;;5.10;4.60;;;8.50;78.60;;;;;;4974731;28;20436;-69
2021/12/15 17:57:03;;;;;;;4.60;4.20;;;8.60;78.60;;;;;;4974213;28;20969;-70
2021/12/15 17:59:32;;;;;;;5.73;4.40;;;8.60;78.50;;;;;;4974413;28;20481;-69
2021/12/15 18:01:59;;;;;;;5.10;4.60;;;8.50;78.70;;;;;;4974367;28;20481;-70
2021/12/15 18:04:26;;;;;;;4.90;4.40;;;8.60;78.60;;;;;;4974251;28;20942;-69